createdAt,value
2018-11-06T00:00:17.237Z,7.70
2018-11-06T00:02:46.725Z,7.70
2018-11-06T00:05:16.622Z,7.70
2018-11-06T00:07:46.229Z,7.60
2018-11-06T00:10:14.714Z,7.60
2018-11-06T00:12:43.156Z,7.60
2018-11-06T00:15:11.654Z,7.60
2018-11-06T00:17:40.461Z,7.50
2018-11-06T00:20:11.624Z,7.50
2018-11-06T00:22:40.105Z,7.50
2018-11-06T00:25:10.135Z,7.50
2018-11-06T00:27:38.693Z,7.50
2018-11-06T00:30:09.013Z,7.50
2018-11-06T00:32:37.598Z,7.40
2018-11-06T00:35:06.677Z,7.40
2018-11-06T00:37:35.130Z,7.40
2018-11-06T00:40:03.661Z,7.40
2018-11-06T00:42:32.098Z,7.40
2018-11-06T00:45:00.538Z,7.30
2018-11-06T00:47:28.965Z,7.30
2018-11-06T00:49:57.370Z,7.30
2018-11-06T00:52:25.817Z,7.30
2018-11-06T00:54:54.224Z,7.30
2018-11-06T00:57:22.664Z,7.40
2018-11-06T00:59:51.747Z,7.40
2018-11-06T01:02:20.201Z,7.40
2018-11-06T01:04:48.657Z,7.40
2018-11-06T01:07:17.086Z,7.40
2018-11-06T01:09:45.964Z,7.50
2018-11-06T01:12:14.406Z,7.40
2018-11-06T01:14:42.930Z,7.50
2018-11-06T01:17:11.374Z,7.50
2018-11-06T01:19:39.828Z,7.50
2018-11-06T01:22:08.282Z,7.60
2018-11-06T01:24:36.721Z,7.60
2018-11-06T01:27:05.634Z,7.60
2018-11-06T01:29:34.066Z,7.60
2018-11-06T01:32:02.491Z,7.60
2018-11-06T01:34:30.938Z,7.70
2018-11-06T01:36:59.369Z,7.70
2018-11-06T01:39:27.813Z,7.70
2018-11-06T01:41:56.289Z,7.70
2018-11-06T01:44:24.737Z,7.70
2018-11-06T01:46:53.177Z,7.70
2018-11-06T01:49:21.657Z,7.70
2018-11-06T01:51:50.109Z,7.70
2018-11-06T01:54:18.549Z,7.70
2018-11-06T01:56:47.034Z,7.70
2018-11-06T01:59:15.466Z,7.80
2018-11-06T02:01:43.987Z,7.70
2018-11-06T02:04:12.937Z,7.70
2018-11-06T02:06:41.394Z,7.70
2018-11-06T02:09:10.563Z,7.70
2018-11-06T02:11:39.022Z,7.60
2018-11-06T02:14:07.509Z,7.50
2018-11-06T02:16:35.977Z,7.50
2018-11-06T02:19:04.730Z,7.40
2018-11-06T02:21:33.178Z,7.40
2018-11-06T02:24:01.899Z,7.30
2018-11-06T02:26:30.445Z,7.30
2018-11-06T02:28:59.148Z,7.30
2018-11-06T02:31:27.623Z,7.20
2018-11-06T02:33:56.072Z,7.10
2018-11-06T02:36:24.498Z,7.00
2018-11-06T02:38:52.951Z,7.00
2018-11-06T02:41:21.415Z,7.00
2018-11-06T02:43:49.912Z,6.90
2018-11-06T02:46:18.367Z,6.90
2018-11-06T02:48:47.217Z,6.90
2018-11-06T02:51:15.675Z,6.80
2018-11-06T02:53:44.282Z,6.80
2018-11-06T02:56:12.787Z,6.80
2018-11-06T02:58:41.412Z,6.80
2018-11-06T03:01:09.869Z,6.70
2018-11-06T03:03:41.374Z,6.70
2018-11-06T03:06:11.006Z,6.70
2018-11-06T03:08:39.580Z,6.70
2018-11-06T03:11:08.194Z,6.70
2018-11-06T03:13:36.622Z,6.60
2018-11-06T03:16:05.522Z,6.60
2018-11-06T03:18:33.945Z,6.60
2018-11-06T03:21:02.428Z,6.60
2018-11-06T03:23:31.212Z,6.60
2018-11-06T03:25:59.681Z,6.60
2018-11-06T03:28:28.833Z,6.50
2018-11-06T03:30:57.279Z,6.60
2018-11-06T03:33:25.798Z,6.50
2018-11-06T03:35:54.256Z,6.50
2018-11-06T03:38:22.682Z,6.50
2018-11-06T03:40:51.165Z,6.50
2018-11-06T03:43:19.867Z,6.50
2018-11-06T03:45:48.296Z,6.50
2018-11-06T03:48:16.730Z,6.50
2018-11-06T03:50:45.243Z,6.40
2018-11-06T03:53:13.705Z,6.40
2018-11-06T03:55:42.133Z,6.40
2018-11-06T03:58:10.626Z,6.40
2018-11-06T04:00:39.066Z,6.40
2018-11-06T04:03:07.506Z,6.40
2018-11-06T04:05:35.952Z,6.40
2018-11-06T04:08:04.451Z,6.40
2018-11-06T04:10:32.893Z,6.30
2018-11-06T04:13:01.353Z,6.40
2018-11-06T04:15:30.142Z,6.40
2018-11-06T04:17:58.625Z,6.40
2018-11-06T04:20:27.090Z,6.40
2018-11-06T04:22:55.539Z,6.30
2018-11-06T04:25:24.027Z,6.40
2018-11-06T04:27:52.480Z,6.40
2018-11-06T04:30:20.982Z,6.30
2018-11-06T04:32:49.414Z,6.30
2018-11-06T04:35:17.867Z,6.30
2018-11-06T04:37:46.298Z,6.30
2018-11-06T04:40:15.171Z,6.30
2018-11-06T04:42:43.839Z,6.20
2018-11-06T04:45:13.070Z,6.20
2018-11-06T04:47:41.562Z,6.20
2018-11-06T04:50:11.721Z,6.20
2018-11-06T04:52:40.473Z,6.20
2018-11-06T04:55:11.081Z,6.20
2018-11-06T04:57:39.517Z,6.10
2018-11-06T05:00:09.906Z,6.10
2018-11-06T05:02:38.402Z,6.10
2018-11-06T05:05:07.235Z,6.10
2018-11-06T05:07:35.698Z,6.10
2018-11-06T05:10:04.322Z,6.10
2018-11-06T05:12:32.782Z,6.10
2018-11-06T05:15:01.217Z,6.10
2018-11-06T05:17:29.697Z,6.10
2018-11-06T05:19:58.501Z,6.10
2018-11-06T05:22:27.351Z,6.10
2018-11-06T05:24:55.818Z,6.10
2018-11-06T05:27:24.422Z,6.10
2018-11-06T05:29:52.882Z,6.10
2018-11-06T05:32:21.359Z,6.10
2018-11-06T05:34:49.891Z,6.10
2018-11-06T05:37:18.463Z,6.10
2018-11-06T05:39:58.234Z,6.00
2018-11-06T05:42:26.686Z,6.00
2018-11-06T05:44:55.110Z,6.00
2018-11-06T05:47:24.285Z,6.00
2018-11-06T05:49:52.722Z,6.00
2018-11-06T05:52:22.105Z,6.00
2018-11-06T05:54:50.550Z,6.00
2018-11-06T05:57:19.005Z,6.00
2018-11-06T05:59:47.449Z,6.00
2018-11-06T06:02:15.933Z,5.90
2018-11-06T06:04:44.655Z,6.00
2018-11-06T06:07:13.113Z,6.00
2018-11-06T06:09:41.602Z,6.00
2018-11-06T06:12:10.041Z,5.90
2018-11-06T06:14:38.508Z,5.90
2018-11-06T06:17:07.924Z,6.00
2018-11-06T06:19:36.655Z,6.00
2018-11-06T06:22:05.654Z,6.00
2018-11-06T06:24:34.126Z,5.90
2018-11-06T06:27:02.554Z,5.90
2018-11-06T06:29:31.005Z,5.90
2018-11-06T06:31:59.441Z,5.90
2018-11-06T06:34:27.905Z,5.90
2018-11-06T06:36:56.520Z,5.90
2018-11-06T06:39:24.959Z,5.90
2018-11-06T06:41:53.393Z,6.00
2018-11-06T06:44:21.849Z,6.00
2018-11-06T06:46:50.270Z,6.00
2018-11-06T06:49:18.718Z,6.00
2018-11-06T06:51:47.224Z,6.00
2018-11-06T06:54:15.772Z,6.00
2018-11-06T06:56:44.314Z,6.00
2018-11-06T06:59:12.788Z,6.00
2018-11-06T07:01:41.285Z,6.00
2018-11-06T07:04:09.746Z,6.10
2018-11-06T07:06:38.347Z,6.10
2018-11-06T07:09:08.747Z,6.20
2018-11-06T07:11:37.222Z,6.30
2018-11-06T07:14:05.739Z,6.30
2018-11-06T07:16:34.192Z,6.40
2018-11-06T07:19:02.639Z,6.40
2018-11-06T07:21:31.107Z,6.50
2018-11-06T07:23:59.570Z,6.50
2018-11-06T07:26:28.024Z,6.60
2018-11-06T07:28:56.605Z,6.60
2018-11-06T07:31:25.674Z,6.70
2018-11-06T07:33:54.677Z,6.70
2018-11-06T07:36:23.183Z,6.80
2018-11-06T07:38:51.656Z,6.80
2018-11-06T07:41:21.140Z,6.90
2018-11-06T07:43:49.597Z,6.90
2018-11-06T07:46:18.079Z,7.00
2018-11-06T07:48:46.576Z,7.00
2018-11-06T07:51:15.122Z,7.10
2018-11-06T07:53:43.572Z,7.20
2018-11-06T07:56:12.217Z,7.20
2018-11-06T07:58:40.834Z,7.30
2018-11-06T08:01:09.275Z,7.30
2018-11-06T08:03:37.784Z,7.40
2018-11-06T08:06:06.325Z,7.50
2018-11-06T08:08:34.917Z,7.50
2018-11-06T08:11:03.363Z,7.60
2018-11-06T08:13:31.854Z,7.70
2018-11-06T08:16:00.291Z,7.70
2018-11-06T08:18:28.737Z,7.70
2018-11-06T08:20:57.183Z,7.80
2018-11-06T08:23:25.644Z,7.80
2018-11-06T08:25:54.084Z,7.90
2018-11-06T08:28:22.538Z,8.00
2018-11-06T08:30:51.188Z,8.10
2018-11-06T08:33:19.650Z,8.10
2018-11-06T08:35:48.099Z,8.20
2018-11-06T08:38:16.518Z,8.40
2018-11-06T08:40:45.019Z,8.50
2018-11-06T08:43:13.450Z,8.60
2018-11-06T08:45:41.902Z,8.70
2018-11-06T08:48:10.457Z,8.90
2018-11-06T08:50:39.038Z,9.00
2018-11-06T08:53:07.462Z,9.10
2018-11-06T08:55:35.954Z,9.20
2018-11-06T08:58:04.781Z,9.40
2018-11-06T09:00:33.230Z,9.50
2018-11-06T09:03:01.914Z,9.70
2018-11-06T09:05:31.230Z,9.90
2018-11-06T09:07:59.814Z,10.20
2018-11-06T09:10:28.270Z,10.40
2018-11-06T09:12:56.730Z,10.60
2018-11-06T09:15:26.043Z,10.70
2018-11-06T09:17:54.500Z,10.90
2018-11-06T09:20:23.016Z,11.00
2018-11-06T09:22:51.467Z,11.20
2018-11-06T09:25:19.945Z,11.40
2018-11-06T09:27:48.393Z,11.60
2018-11-06T09:30:18.086Z,11.70
2018-11-06T09:32:46.586Z,11.90
2018-11-06T09:35:15.432Z,12.10
2018-11-06T09:37:44.584Z,12.20
2018-11-06T09:40:14.582Z,12.30
2018-11-06T09:42:43.301Z,12.40
2018-11-06T09:45:12.767Z,12.40
2018-11-06T09:47:41.253Z,12.50
2018-11-06T09:50:13.133Z,12.50
2018-11-06T09:52:42.544Z,12.40
2018-11-06T09:55:11.039Z,12.40
2018-11-06T09:57:39.522Z,12.40
2018-11-06T10:00:12.294Z,12.40
2018-11-06T10:02:40.994Z,12.40
2018-11-06T10:05:10.107Z,12.40
2018-11-06T10:07:38.834Z,12.50
2018-11-06T10:10:09.379Z,12.70
2018-11-06T10:12:38.045Z,12.90
2018-11-06T10:15:07.858Z,13.00
2018-11-06T10:17:36.318Z,13.20
2018-11-06T10:20:06.131Z,13.30
2018-11-06T10:22:34.938Z,13.40
2018-11-06T10:25:03.890Z,13.50
2018-11-06T10:27:32.346Z,13.50
2018-11-06T10:30:00.875Z,13.50
2018-11-06T10:32:29.334Z,13.50
2018-11-06T10:34:57.786Z,13.50
2018-11-06T10:37:26.238Z,13.50
2018-11-06T10:39:54.698Z,13.50
2018-11-06T10:42:23.154Z,13.60
2018-11-06T10:44:51.614Z,13.60
2018-11-06T10:47:20.094Z,13.60
2018-11-06T10:49:48.567Z,13.60
2018-11-06T10:52:17.009Z,13.60
2018-11-06T10:54:45.488Z,13.60
2018-11-06T10:57:13.930Z,13.50
2018-11-06T10:59:42.393Z,13.40
2018-11-06T11:02:21.210Z,13.40
2018-11-06T11:04:50.451Z,13.50
2018-11-06T11:07:18.900Z,13.60
2018-11-06T11:09:47.362Z,13.70
2018-11-06T11:12:15.794Z,13.80
2018-11-06T11:14:44.301Z,13.90
2018-11-06T11:17:12.746Z,14.10
2018-11-06T11:19:42.989Z,14.30
2018-11-06T11:22:11.537Z,14.40
2018-11-06T11:24:40.046Z,14.40
2018-11-06T11:27:09.327Z,14.50
2018-11-06T11:29:38.118Z,14.60
2018-11-06T11:32:06.859Z,14.60
2018-11-06T11:34:35.314Z,14.60
2018-11-06T11:37:03.818Z,14.70
2018-11-06T11:39:32.935Z,14.70
2018-11-06T11:42:01.389Z,14.80
2018-11-06T11:44:29.878Z,14.80
2018-11-06T11:46:58.390Z,14.90
2018-11-06T11:49:26.833Z,15.00
2018-11-06T11:51:55.521Z,15.00
2018-11-06T11:54:24.003Z,15.00
2018-11-06T11:56:52.444Z,14.90
2018-11-06T11:59:21.490Z,14.90
2018-11-06T12:01:49.964Z,14.90
2018-11-06T12:04:18.473Z,14.90
2018-11-06T12:06:46.945Z,14.80
2018-11-06T12:09:15.425Z,14.80
2018-11-06T12:11:47.101Z,14.80
2018-11-06T12:14:15.546Z,14.80
2018-11-06T12:16:44.037Z,14.90
2018-11-06T12:19:12.531Z,14.90
2018-11-06T12:21:41.071Z,15.00
2018-11-06T12:24:09.654Z,15.00
2018-11-06T12:26:38.969Z,15.00
2018-11-06T12:29:07.479Z,15.10
2018-11-06T12:31:39.372Z,15.10
2018-11-06T12:34:07.935Z,15.20
2018-11-06T12:36:36.708Z,15.20
2018-11-06T12:39:07.179Z,15.20
2018-11-06T12:41:35.604Z,15.20
2018-11-06T12:44:04.120Z,15.30
2018-11-06T12:46:32.553Z,15.30
2018-11-06T12:49:01.088Z,15.40
2018-11-06T12:51:29.573Z,15.50
2018-11-06T12:53:58.202Z,15.50
2018-11-06T12:56:26.779Z,15.60
2018-11-06T12:58:55.270Z,15.60
2018-11-06T13:01:24.773Z,15.70
2018-11-06T13:03:53.225Z,15.70
2018-11-06T13:06:21.703Z,15.80
2018-11-06T13:08:50.195Z,15.80
2018-11-06T13:11:18.634Z,15.90
2018-11-06T13:13:47.097Z,15.90
2018-11-06T13:16:15.580Z,15.90
2018-11-06T13:18:44.219Z,16.00
2018-11-06T13:21:12.654Z,16.00
2018-11-06T13:23:41.337Z,16.00
2018-11-06T13:26:09.907Z,16.10
2018-11-06T13:28:38.447Z,16.10
2018-11-06T13:31:06.915Z,16.10
2018-11-06T13:33:35.367Z,16.10
2018-11-06T13:36:03.895Z,16.10
2018-11-06T13:38:32.864Z,16.00
2018-11-06T13:41:01.720Z,16.00
2018-11-06T13:43:30.211Z,16.00
2018-11-06T13:45:58.837Z,16.00
2018-11-06T13:48:27.750Z,16.00
2018-11-06T13:50:56.210Z,16.10
2018-11-06T13:53:24.849Z,16.00
2018-11-06T13:55:53.338Z,16.10
2018-11-06T13:58:21.766Z,16.00
2018-11-06T14:00:50.212Z,16.00
2018-11-06T14:03:18.682Z,16.00
2018-11-06T14:05:47.142Z,15.90
2018-11-06T14:08:15.558Z,15.90
2018-11-06T14:10:44.315Z,15.90
2018-11-06T14:13:13.000Z,15.90
2018-11-06T14:15:41.609Z,15.90
2018-11-06T14:18:10.168Z,16.00
2018-11-06T14:20:38.754Z,16.00
2018-11-06T14:23:07.267Z,16.00
2018-11-06T14:25:35.915Z,15.80
2018-11-06T14:30:47.455Z,15.80
2018-11-06T14:33:16.891Z,15.70
2018-11-06T14:35:45.513Z,15.60
2018-11-06T14:38:14.279Z,15.60
2018-11-06T14:40:43.001Z,15.60
2018-11-06T14:43:11.645Z,15.50
2018-11-06T14:45:40.208Z,15.40
2018-11-06T14:48:08.872Z,15.40
2018-11-06T14:50:37.566Z,15.40
2018-11-06T14:53:06.145Z,15.30
2018-11-06T14:55:34.651Z,15.20
2018-11-06T14:58:05.597Z,15.10
2018-11-06T15:00:35.248Z,15.10
2018-11-06T15:03:04.276Z,15.00
2018-11-06T15:05:32.818Z,15.00
2018-11-06T15:08:01.484Z,14.90
2018-11-06T15:10:29.950Z,14.90
2018-11-06T15:12:58.440Z,15.00
2018-11-06T15:15:26.886Z,15.00
2018-11-06T15:17:55.309Z,14.90
2018-11-06T15:20:29.429Z,14.90
2018-11-06T15:22:57.882Z,14.80
2018-11-06T15:25:26.381Z,14.80
2018-11-06T15:27:55.411Z,14.70
2018-11-06T15:30:23.891Z,14.70
2018-11-06T15:32:52.391Z,14.70
2018-11-06T15:35:21.865Z,14.60
2018-11-06T15:37:50.310Z,14.60
2018-11-06T15:40:19.974Z,14.50
2018-11-06T15:42:49.772Z,14.40
2018-11-06T15:45:19.239Z,14.30
2018-11-06T15:47:48.425Z,14.10
2018-11-06T15:50:18.047Z,14.00
2018-11-06T15:52:47.418Z,13.90
2018-11-06T15:55:16.026Z,13.80
2018-11-06T15:57:44.593Z,13.70
2018-11-06T16:00:22.786Z,13.70
2018-11-06T16:02:52.212Z,13.50
2018-11-06T16:05:20.750Z,13.50
2018-11-06T16:07:49.798Z,13.40
2018-11-06T16:10:20.601Z,13.30
2018-11-06T16:12:49.069Z,13.20
2018-11-06T16:15:18.288Z,13.20
2018-11-06T16:17:47.202Z,13.30
2018-11-06T16:20:18.895Z,13.20
2018-11-06T16:22:48.114Z,13.20
2018-11-06T16:25:17.679Z,13.20
2018-11-06T16:27:46.544Z,13.20
2018-11-06T16:30:17.474Z,13.20
2018-11-06T16:32:45.979Z,13.30
2018-11-06T16:35:15.987Z,13.30
2018-11-06T16:37:44.883Z,13.30
2018-11-06T16:40:14.575Z,13.30
2018-11-06T16:42:43.818Z,13.20
2018-11-06T16:45:14.499Z,13.10
2018-11-06T16:47:44.010Z,13.10
2018-11-06T16:50:14.047Z,13.00
2018-11-06T16:52:42.535Z,12.90
2018-11-06T16:55:11.449Z,12.90
2018-11-06T16:57:40.998Z,12.80
2018-11-06T17:00:11.354Z,12.80
2018-11-06T17:02:40.306Z,12.80
2018-11-06T17:05:10.706Z,12.80
2018-11-06T17:07:39.254Z,12.80
2018-11-06T17:10:09.646Z,12.80
2018-11-06T17:12:38.125Z,12.80
2018-11-06T17:15:14.185Z,12.80
2018-11-06T17:17:43.061Z,12.80
2018-11-06T17:20:12.283Z,12.70
2018-11-06T17:22:41.434Z,12.70
2018-11-06T17:25:11.830Z,12.70
2018-11-06T17:27:40.454Z,12.70
2018-11-06T17:30:10.739Z,12.80
2018-11-06T17:32:39.946Z,12.80
2018-11-06T17:35:09.987Z,12.80
2018-11-06T17:37:39.366Z,12.80
2018-11-06T17:40:10.455Z,12.80
2018-11-06T17:42:39.161Z,12.80
2018-11-06T17:45:09.868Z,12.70
2018-11-06T17:47:38.875Z,12.80
2018-11-06T17:50:09.741Z,12.70
2018-11-06T17:52:40.642Z,12.70
2018-11-06T17:55:10.846Z,12.60
2018-11-06T17:57:41.582Z,12.60
2018-11-06T18:00:12.556Z,12.50
2018-11-06T18:02:41.966Z,12.50
2018-11-06T18:05:11.590Z,12.40
2018-11-06T18:07:40.819Z,12.40
2018-11-06T18:10:12.573Z,12.30
2018-11-06T18:12:41.202Z,12.20
2018-11-06T18:15:09.714Z,12.20
2018-11-06T18:17:39.115Z,12.20
2018-11-06T18:20:08.806Z,12.10
2018-11-06T18:22:37.510Z,12.10
2018-11-06T18:25:06.840Z,12.10
2018-11-06T18:27:35.689Z,12.10
2018-11-06T18:30:04.818Z,12.10
2018-11-06T18:32:33.339Z,12.10
2018-11-06T18:35:02.015Z,12.10
2018-11-06T18:37:30.494Z,12.10
2018-11-06T18:39:58.982Z,12.00
2018-11-06T18:42:27.622Z,11.90
2018-11-06T18:44:56.254Z,11.90
2018-11-06T18:47:25.029Z,11.90
2018-11-06T18:49:53.646Z,11.90
2018-11-06T18:52:22.275Z,11.90
2018-11-06T18:54:50.935Z,11.90
2018-11-06T18:57:19.696Z,12.00
2018-11-06T18:59:48.251Z,12.00
2018-11-06T19:02:16.946Z,12.00
2018-11-06T19:04:45.523Z,12.00
2018-11-06T19:07:14.339Z,12.00
2018-11-06T19:09:42.984Z,11.90
2018-11-06T19:12:12.054Z,11.80
2018-11-06T19:14:40.597Z,11.70
2018-11-06T19:17:09.404Z,11.70
2018-11-06T19:19:37.921Z,11.70
2018-11-06T19:22:06.469Z,11.50
2018-11-06T19:24:35.178Z,11.50
2018-11-06T19:27:04.925Z,11.40
2018-11-06T19:29:33.450Z,11.20
2018-11-06T19:32:02.147Z,11.10
2018-11-06T19:34:30.686Z,11.00
2018-11-06T19:37:01.049Z,10.90
2018-11-06T19:39:30.067Z,10.80
2018-11-06T19:41:58.517Z,10.70
2018-11-06T19:44:26.982Z,10.60
2018-11-06T19:46:55.401Z,10.50
2018-11-06T19:49:23.857Z,10.40
2018-11-06T19:51:52.354Z,10.40
2018-11-06T19:54:20.848Z,10.30
2018-11-06T19:56:49.572Z,10.20
2018-11-06T19:59:18.166Z,10.20
2018-11-06T20:01:46.790Z,10.10
2018-11-06T20:04:15.260Z,10.10
2018-11-06T20:06:43.718Z,10.00
2018-11-06T20:09:12.490Z,10.00
2018-11-06T20:11:41.084Z,9.90
2018-11-06T20:14:09.997Z,9.90
2018-11-06T20:16:38.602Z,9.80
2018-11-06T20:19:08.148Z,9.80
2018-11-06T20:21:37.010Z,9.70
2018-11-06T20:24:06.748Z,9.70
2018-11-06T20:26:35.462Z,9.70
2018-11-06T20:29:04.570Z,9.70
2018-11-06T20:31:33.106Z,9.60
2018-11-06T20:34:01.957Z,9.60
2018-11-06T20:36:31.311Z,9.60
2018-11-06T20:38:59.858Z,9.50
2018-11-06T20:41:28.360Z,9.50
2018-11-06T20:43:56.839Z,9.50
2018-11-06T20:46:25.403Z,9.40
2018-11-06T20:48:54.226Z,9.40
2018-11-06T20:51:22.919Z,9.40
2018-11-06T20:53:51.399Z,9.40
2018-11-06T20:56:19.910Z,9.30
2018-11-06T20:58:48.522Z,9.30
2018-11-06T21:01:17.319Z,9.30
2018-11-06T21:03:45.876Z,9.20
2018-11-06T21:06:14.452Z,9.20
2018-11-06T21:08:42.984Z,9.20
2018-11-06T21:11:11.522Z,9.10
2018-11-06T21:13:40.151Z,9.10
2018-11-06T21:16:09.489Z,9.10
2018-11-06T21:18:38.168Z,9.00
2018-11-06T21:21:07.075Z,9.00
2018-11-06T21:23:35.580Z,9.00
2018-11-06T21:26:04.240Z,9.00
2018-11-06T21:28:32.765Z,9.00
2018-11-06T21:31:01.354Z,9.00
2018-11-06T21:33:29.849Z,8.90
2018-11-06T21:35:58.440Z,8.90
2018-11-06T21:38:27.056Z,8.90
2018-11-06T21:40:56.366Z,8.80
2018-11-06T21:43:25.555Z,8.80
2018-11-06T21:45:54.816Z,8.80
2018-11-06T21:48:23.422Z,8.80
2018-11-06T21:50:52.623Z,8.70
2018-11-06T21:53:21.071Z,8.70
2018-11-06T21:55:49.554Z,8.80
2018-11-06T21:58:18.730Z,8.80
2018-11-06T22:00:47.332Z,8.70
2018-11-06T22:03:15.947Z,8.70
2018-11-06T22:05:44.442Z,8.70
2018-11-06T22:08:13.222Z,8.70
2018-11-06T22:10:42.535Z,8.60
2018-11-06T22:13:11.128Z,8.60
2018-11-06T22:15:39.726Z,8.60
2018-11-06T22:18:08.164Z,8.50
2018-11-06T22:20:36.646Z,8.50
2018-11-06T22:23:05.473Z,8.50
2018-11-06T22:25:33.945Z,8.50
2018-11-06T22:28:02.414Z,8.50
2018-11-06T22:30:30.858Z,8.50
2018-11-06T22:32:59.378Z,8.40
2018-11-06T22:35:27.950Z,8.40
2018-11-06T22:37:56.407Z,8.40
2018-11-06T22:40:25.002Z,8.40
2018-11-06T22:42:53.449Z,8.40
2018-11-06T22:45:22.338Z,8.40
2018-11-06T22:47:50.830Z,8.40
2018-11-06T22:50:19.296Z,8.30
2018-11-06T22:52:48.649Z,8.30
2018-11-06T22:55:17.413Z,8.40
2018-11-06T22:57:45.903Z,8.40
2018-11-06T23:00:19.273Z,8.40
2018-11-06T23:02:47.942Z,8.40
2018-11-06T23:05:16.582Z,8.40
2018-11-06T23:07:50.657Z,8.40
2018-11-06T23:10:19.597Z,8.50
2018-11-06T23:12:48.050Z,8.50
2018-11-06T23:15:16.540Z,8.60
2018-11-06T23:17:44.986Z,8.60
2018-11-06T23:20:13.429Z,8.60
2018-11-06T23:22:42.015Z,8.60
2018-11-06T23:25:10.462Z,8.60
2018-11-06T23:27:39.067Z,8.70
2018-11-06T23:30:10.725Z,8.70
2018-11-06T23:32:39.518Z,8.70
2018-11-06T23:35:08.055Z,8.70
2018-11-06T23:37:36.614Z,8.70
2018-11-06T23:40:05.795Z,8.70
2018-11-06T23:42:35.265Z,8.70
2018-11-06T23:45:04.218Z,8.70
2018-11-06T23:47:32.715Z,8.70
2018-11-06T23:50:01.182Z,8.70
2018-11-06T23:52:29.690Z,8.70
2018-11-06T23:54:58.205Z,8.70
2018-11-06T23:57:27.128Z,8.70
2018-11-06T23:59:55.549Z,8.70
